createdAt,value
2022-12-31T00:00:34.791Z,3.28
2022-12-31T00:03:03.187Z,3.40
2022-12-31T00:05:32.062Z,3.30
2022-12-31T00:07:59.219Z,3.35
2022-12-31T00:10:26.522Z,3.50
2022-12-31T00:12:54.028Z,3.40
2022-12-31T00:15:21.539Z,2.97
2022-12-31T00:17:48.881Z,3.20
2022-12-31T00:20:16.710Z,3.50
2022-12-31T00:22:43.914Z,3.40
2022-12-31T00:25:11.102Z,3.15
2022-12-31T00:27:38.775Z,3.63
2022-12-31T00:30:06.439Z,3.13
2022-12-31T00:32:33.798Z,3.13
2022-12-31T00:35:01.043Z,2.90
2022-12-31T00:37:30.193Z,3.25
2022-12-31T00:39:57.340Z,2.90
2022-12-31T00:42:24.569Z,2.88
2022-12-31T00:44:51.718Z,2.80
2022-12-31T00:47:19.015Z,2.70
2022-12-31T00:49:48.008Z,2.65
2022-12-31T00:52:17.004Z,2.60
2022-12-31T00:54:44.657Z,2.75
2022-12-31T00:57:12.294Z,2.50
2022-12-31T00:59:39.756Z,2.90
2022-12-31T01:02:07.049Z,2.88
2022-12-31T01:04:34.749Z,2.47
2022-12-31T01:07:02.218Z,2.70
2022-12-31T01:09:29.470Z,2.70
2022-12-31T01:11:56.953Z,2.60
2022-12-31T01:14:24.213Z,2.50
2022-12-31T01:16:53.555Z,2.85
2022-12-31T01:19:26.350Z,2.90
2022-12-31T01:21:54.596Z,2.60
2022-12-31T01:24:22.382Z,2.80
2022-12-31T01:26:51.080Z,2.70
2022-12-31T01:29:19.871Z,2.78
2022-12-31T01:31:47.195Z,3.40
2022-12-31T01:34:14.933Z,3.10
2022-12-31T01:36:42.199Z,2.85
2022-12-31T01:39:11.115Z,3.05
2022-12-31T01:41:41.753Z,3.05
2022-12-31T01:44:11.933Z,3.20
2022-12-31T01:46:39.399Z,3.42
2022-12-31T01:49:22.888Z,5.72
2022-12-31T01:52:17.571Z,12.52
2022-12-31T01:54:49.849Z,10.43
2022-12-31T01:57:20.668Z,17.85
2022-12-31T01:59:48.037Z,21.77
2022-12-31T02:02:16.538Z,15.77
2022-12-31T02:04:44.069Z,12.00
2022-12-31T02:07:12.711Z,8.48
2022-12-31T02:09:42.363Z,4.72
2022-12-31T02:12:10.702Z,4.57
2022-12-31T02:14:48.297Z,4.70
2022-12-31T02:17:40.257Z,6.13
2022-12-31T02:20:52.462Z,11.57
2022-12-31T02:24:14.052Z,9.02
2022-12-31T02:26:55.171Z,5.97
2022-12-31T02:29:53.428Z,5.13
2022-12-31T02:32:28.481Z,4.15
2022-12-31T02:37:34.017Z,3.97
2022-12-31T02:40:01.552Z,4.15
2022-12-31T02:42:30.447Z,3.50
2022-12-31T02:44:57.599Z,3.67
2022-12-31T02:48:19.337Z,3.65
2022-12-31T02:51:08.223Z,3.45
2022-12-31T02:53:58.815Z,3.90
2022-12-31T02:56:25.922Z,3.90
2022-12-31T02:59:28.441Z,3.53
2022-12-31T03:02:14.336Z,3.80
2022-12-31T03:05:02.507Z,3.60
2022-12-31T03:07:33.035Z,3.53
2022-12-31T03:10:01.602Z,3.13
2022-12-31T03:12:48.841Z,3.70
2022-12-31T03:15:26.642Z,3.88
2022-12-31T03:18:03.222Z,3.88
2022-12-31T03:21:02.475Z,4.90
2022-12-31T03:23:42.338Z,3.80
2022-12-31T03:26:11.586Z,4.07
2022-12-31T03:28:41.432Z,4.15
2022-12-31T03:31:09.250Z,3.40
2022-12-31T03:33:38.708Z,4.32
2022-12-31T03:36:09.116Z,4.00
2022-12-31T03:38:36.475Z,4.20
2022-12-31T03:41:04.351Z,4.22
2022-12-31T03:43:31.912Z,4.18
2022-12-31T03:46:01.767Z,3.88
2022-12-31T03:48:29.499Z,4.25
2022-12-31T03:50:56.746Z,4.72
2022-12-31T03:53:25.628Z,5.05
2022-12-31T03:55:53.746Z,3.83
2022-12-31T03:58:22.017Z,4.10
2022-12-31T04:00:51.193Z,4.20
2022-12-31T04:03:18.680Z,4.50
2022-12-31T04:05:52.955Z,4.47
2022-12-31T04:08:20.099Z,5.57
2022-12-31T04:10:47.992Z,6.15
2022-12-31T04:13:15.120Z,5.95
2022-12-31T04:15:42.470Z,6.13
2022-12-31T04:18:09.868Z,6.50
2022-12-31T04:20:37.118Z,6.43
2022-12-31T04:23:05.929Z,7.40
2022-12-31T04:25:33.735Z,6.95
2022-12-31T04:28:00.965Z,7.60
2022-12-31T04:30:29.333Z,6.85
2022-12-31T04:32:56.676Z,6.47
2022-12-31T04:35:24.087Z,5.57
2022-12-31T04:37:51.401Z,6.07
2022-12-31T04:40:19.708Z,8.13
2022-12-31T04:42:47.202Z,8.80
2022-12-31T04:45:15.084Z,7.68
2022-12-31T04:47:43.099Z,7.57
2022-12-31T04:50:10.888Z,8.32
2022-12-31T04:52:42.702Z,9.73
2022-12-31T04:55:12.100Z,9.90
2022-12-31T04:57:41.696Z,7.57
2022-12-31T05:00:09.409Z,8.00
2022-12-31T05:02:39.323Z,8.00
2022-12-31T05:05:07.230Z,8.73
2022-12-31T05:07:36.001Z,10.52
2022-12-31T05:10:04.008Z,11.27
2022-12-31T05:12:31.463Z,11.18
2022-12-31T05:14:58.975Z,11.18
2022-12-31T05:17:27.184Z,12.10
2022-12-31T05:19:54.549Z,10.98
2022-12-31T05:22:30.783Z,11.13
2022-12-31T05:24:59.315Z,9.23
2022-12-31T05:27:28.010Z,10.27
2022-12-31T05:29:55.249Z,9.68
2022-12-31T05:32:24.791Z,10.30
2022-12-31T05:34:53.797Z,9.07
2022-12-31T05:37:21.025Z,9.88
2022-12-31T05:39:48.731Z,10.05
2022-12-31T05:42:16.041Z,9.63
2022-12-31T05:44:43.197Z,9.50
2022-12-31T05:47:10.589Z,9.77
2022-12-31T05:49:37.851Z,8.13
2022-12-31T05:52:05.037Z,8.38
2022-12-31T05:54:32.306Z,7.75
2022-12-31T05:56:59.968Z,8.30
2022-12-31T05:59:27.094Z,8.10
2022-12-31T06:01:54.510Z,8.13
2022-12-31T06:04:21.765Z,9.85
2022-12-31T06:06:49.341Z,9.52
2022-12-31T06:09:18.418Z,9.00
2022-12-31T06:11:47.031Z,8.57
2022-12-31T06:14:14.830Z,9.80
2022-12-31T06:16:42.467Z,8.80
2022-12-31T06:19:10.265Z,10.48
2022-12-31T06:21:37.680Z,9.10
2022-12-31T06:24:05.507Z,11.00
2022-12-31T06:26:32.964Z,10.85
2022-12-31T06:29:00.280Z,9.68
2022-12-31T06:31:27.796Z,10.10
2022-12-31T06:33:55.304Z,11.10
2022-12-31T06:36:22.680Z,10.60
2022-12-31T06:38:50.601Z,12.70
2022-12-31T06:41:19.069Z,12.40
2022-12-31T06:43:46.672Z,13.13
2022-12-31T06:46:17.738Z,12.52
2022-12-31T06:48:45.289Z,11.70
2022-12-31T06:51:17.427Z,13.35
2022-12-31T06:53:46.976Z,13.40
2022-12-31T06:56:15.728Z,12.32
2022-12-31T06:58:43.725Z,14.30
2022-12-31T07:01:48.508Z,13.98
2022-12-31T07:04:52.784Z,14.52
2022-12-31T07:07:46.521Z,14.30
2022-12-31T07:10:39.393Z,13.98
2022-12-31T07:13:45.371Z,15.07
2022-12-31T07:16:18.661Z,16.08
2022-12-31T07:18:51.577Z,16.13
2022-12-31T07:21:28.243Z,16.15
2022-12-31T07:23:55.948Z,15.25
2022-12-31T07:26:26.032Z,15.32
2022-12-31T07:29:29.215Z,19.35
2022-12-31T07:32:14.943Z,18.55
2022-12-31T07:35:05.159Z,20.45
2022-12-31T07:37:54.128Z,18.45
2022-12-31T07:40:27.532Z,19.23
2022-12-31T07:43:03.268Z,21.25
2022-12-31T07:45:51.496Z,19.42
2022-12-31T07:48:27.758Z,18.58
2022-12-31T07:50:56.798Z,18.17
2022-12-31T07:53:26.119Z,19.00
2022-12-31T07:56:00.147Z,19.95
2022-12-31T07:58:27.359Z,18.07
2022-12-31T08:00:58.164Z,19.48
2022-12-31T08:03:31.605Z,18.42
2022-12-31T08:06:19.520Z,18.40
2022-12-31T08:09:12.869Z,16.98
2022-12-31T08:11:54.229Z,16.60
2022-12-31T08:14:22.348Z,18.02
2022-12-31T08:16:50.329Z,17.70
2022-12-31T08:19:28.886Z,17.23
2022-12-31T08:22:14.565Z,15.40
2022-12-31T08:24:52.908Z,18.30
2022-12-31T08:27:38.587Z,14.23
2022-12-31T08:30:10.928Z,13.73
2022-12-31T08:33:16.003Z,13.90
2022-12-31T08:35:52.985Z,12.93
2022-12-31T08:38:43.662Z,13.20
2022-12-31T08:41:29.941Z,12.93
2022-12-31T08:44:20.435Z,11.85
2022-12-31T08:47:00.165Z,12.77
2022-12-31T08:49:28.834Z,11.30
2022-12-31T08:51:57.106Z,15.98
2022-12-31T08:54:24.781Z,15.85
2022-12-31T08:57:10.970Z,14.45
2022-12-31T09:00:12.058Z,14.45
2022-12-31T09:02:51.298Z,12.23
2022-12-31T09:05:25.836Z,14.13
2022-12-31T09:08:22.980Z,14.23
2022-12-31T09:11:22.616Z,13.68
2022-12-31T09:14:06.577Z,15.30
2022-12-31T09:16:57.227Z,13.68
2022-12-31T09:19:24.572Z,12.55
2022-12-31T09:21:52.092Z,12.93
2022-12-31T09:24:19.772Z,13.00
2022-12-31T09:27:31.126Z,13.13
2022-12-31T09:30:11.720Z,12.10
2022-12-31T09:33:12.932Z,11.80
2022-12-31T09:35:56.166Z,12.48
2022-12-31T09:38:44.309Z,11.27
2022-12-31T09:41:36.375Z,11.05
2022-12-31T09:44:19.110Z,11.55
2022-12-31T09:47:04.337Z,10.88
2022-12-31T09:52:25.947Z,11.23
2022-12-31T09:54:59.418Z,10.82
2022-12-31T09:58:15.608Z,10.85
2022-12-31T10:01:07.779Z,10.98
2022-12-31T10:03:53.699Z,12.52
2022-12-31T10:06:29.276Z,12.32
2022-12-31T10:09:06.052Z,11.35
2022-12-31T10:11:51.689Z,11.45
2022-12-31T10:14:47.426Z,11.65
2022-12-31T10:17:30.156Z,12.38
2022-12-31T10:20:28.218Z,11.85
2022-12-31T10:22:55.722Z,12.52
2022-12-31T10:25:50.194Z,13.45
2022-12-31T10:28:49.266Z,13.60
2022-12-31T10:31:40.501Z,11.60
2022-12-31T10:34:22.730Z,12.23
2022-12-31T10:37:11.276Z,11.10
2022-12-31T10:39:51.855Z,12.48
2022-12-31T10:42:25.196Z,12.98
2022-12-31T10:45:29.998Z,13.10
2022-12-31T10:47:59.926Z,12.80
2022-12-31T10:51:05.620Z,13.35
2022-12-31T10:53:35.605Z,14.25
2022-12-31T10:56:54.266Z,14.10
2022-12-31T10:59:24.226Z,13.55
2022-12-31T11:02:07.017Z,12.27
2022-12-31T11:05:03.593Z,12.00
2022-12-31T11:07:56.770Z,12.00
2022-12-31T11:10:50.301Z,11.60
2022-12-31T11:13:42.499Z,12.15
2022-12-31T11:16:20.534Z,11.50
2022-12-31T11:19:10.296Z,10.65
2022-12-31T11:21:56.363Z,11.50
2022-12-31T11:24:26.627Z,10.48
2022-12-31T11:27:33.701Z,11.32
2022-12-31T11:30:06.141Z,11.43
2022-12-31T11:32:52.287Z,12.27
2022-12-31T11:35:32.894Z,12.38
2022-12-31T11:38:23.443Z,11.02
2022-12-31T11:41:35.291Z,11.50
2022-12-31T11:44:30.650Z,10.77
2022-12-31T11:47:19.829Z,11.15
2022-12-31T11:50:15.490Z,10.85
2022-12-31T11:52:55.375Z,12.65
2022-12-31T11:55:41.301Z,11.10
2022-12-31T11:58:15.948Z,12.05
2022-12-31T12:00:54.845Z,11.60
2022-12-31T12:03:23.378Z,12.20
2022-12-31T12:05:51.639Z,12.52
2022-12-31T12:08:18.961Z,12.70
2022-12-31T12:10:51.110Z,12.70
2022-12-31T12:13:18.310Z,12.98
2022-12-31T12:15:49.637Z,12.77
2022-12-31T12:18:44.282Z,13.02
2022-12-31T12:21:22.422Z,11.70
2022-12-31T12:24:03.170Z,12.57
2022-12-31T12:26:41.934Z,11.55
2022-12-31T12:29:15.531Z,12.05
2022-12-31T12:31:43.483Z,13.65
2022-12-31T12:34:29.293Z,11.50
2022-12-31T12:36:56.904Z,13.40
2022-12-31T12:39:29.895Z,13.40
2022-12-31T12:42:15.467Z,12.15
2022-12-31T12:44:42.977Z,13.27
2022-12-31T12:47:16.361Z,13.95
2022-12-31T12:49:49.590Z,14.02
2022-12-31T12:52:35.898Z,14.57
2022-12-31T12:55:12.127Z,13.15
2022-12-31T12:57:46.631Z,13.45
2022-12-31T13:00:25.676Z,12.85
2022-12-31T13:03:10.476Z,14.07
2022-12-31T13:05:58.250Z,14.02
2022-12-31T13:08:25.567Z,13.75
2022-12-31T13:11:21.798Z,12.75
2022-12-31T13:14:13.649Z,13.07
2022-12-31T13:16:47.662Z,15.45
2022-12-31T13:19:39.250Z,15.30
2022-12-31T13:22:34.416Z,14.50
2022-12-31T13:25:24.846Z,15.48
2022-12-31T13:27:54.375Z,15.20
2022-12-31T13:30:31.102Z,16.13
2022-12-31T13:33:04.373Z,15.38
2022-12-31T13:35:47.054Z,15.27
2022-12-31T13:38:23.821Z,14.50
2022-12-31T13:41:18.213Z,13.80
2022-12-31T13:43:58.807Z,13.77
2022-12-31T13:46:29.192Z,14.35
2022-12-31T13:49:05.179Z,15.27
2022-12-31T13:51:49.567Z,13.13
2022-12-31T13:54:29.152Z,14.60
2022-12-31T13:57:02.147Z,14.90
2022-12-31T13:59:35.696Z,15.93
2022-12-31T14:02:27.788Z,16.73
2022-12-31T14:05:21.055Z,14.60
2022-12-31T14:07:54.001Z,14.13
2022-12-31T14:10:45.322Z,15.57
2022-12-31T14:13:34.852Z,17.73
2022-12-31T14:16:12.585Z,13.30
2022-12-31T14:18:47.916Z,15.93
2022-12-31T14:21:23.361Z,14.93
2022-12-31T14:24:09.899Z,13.82
2022-12-31T14:26:45.736Z,11.23
2022-12-31T14:29:15.742Z,15.52
2022-12-31T14:32:24.304Z,14.88
2022-12-31T14:35:06.960Z,13.55
2022-12-31T14:37:50.719Z,13.00
2022-12-31T14:40:35.757Z,12.90
2022-12-31T14:43:35.633Z,14.80
2022-12-31T14:46:31.158Z,13.57
2022-12-31T14:49:36.161Z,15.75
2022-12-31T14:52:19.933Z,15.10
2022-12-31T14:54:58.570Z,13.95
2022-12-31T14:57:54.271Z,13.55
2022-12-31T15:00:35.468Z,15.00
2022-12-31T15:03:06.814Z,14.93
2022-12-31T15:05:36.848Z,14.63
2022-12-31T15:08:22.262Z,13.82
2022-12-31T15:11:01.438Z,15.68
2022-12-31T15:13:34.499Z,13.98
2022-12-31T15:16:07.754Z,15.20
2022-12-31T15:18:54.036Z,16.92
2022-12-31T15:22:00.217Z,15.65
2022-12-31T15:24:31.272Z,14.90
2022-12-31T15:27:01.987Z,16.05
2022-12-31T15:29:36.676Z,13.35
2022-12-31T15:32:08.089Z,13.50
2022-12-31T15:34:37.211Z,14.23
2022-12-31T15:37:25.935Z,12.13
2022-12-31T15:40:25.323Z,14.48
2022-12-31T15:42:59.083Z,17.02
2022-12-31T15:45:41.354Z,12.43
2022-12-31T15:48:24.055Z,13.80
2022-12-31T15:50:54.822Z,17.60
2022-12-31T15:53:32.516Z,15.95
2022-12-31T15:56:02.212Z,16.13
2022-12-31T15:58:38.180Z,14.57
2022-12-31T16:01:24.212Z,11.95
2022-12-31T16:04:06.208Z,13.15
2022-12-31T16:06:37.226Z,13.70
2022-12-31T16:09:09.725Z,14.00
2022-12-31T16:11:42.092Z,13.25
2022-12-31T16:14:20.164Z,14.23
2022-12-31T16:16:58.038Z,14.98
2022-12-31T16:19:31.723Z,13.93
2022-12-31T16:22:03.784Z,17.00
2022-12-31T16:24:33.782Z,16.45
2022-12-31T16:27:07.621Z,16.40
2022-12-31T16:29:37.545Z,15.63
2022-12-31T16:32:05.024Z,12.52
2022-12-31T16:34:38.595Z,12.50
2022-12-31T16:37:17.507Z,13.98
2022-12-31T16:39:56.897Z,11.88
2022-12-31T16:42:27.039Z,15.88
2022-12-31T16:44:56.995Z,13.98
2022-12-31T16:47:36.667Z,12.98
2022-12-31T16:50:13.926Z,14.50
2022-12-31T16:52:44.686Z,14.27
2022-12-31T16:55:23.753Z,12.65
2022-12-31T16:57:58.924Z,13.75
2022-12-31T17:00:26.999Z,13.05
2022-12-31T17:02:57.217Z,14.50
2022-12-31T17:05:26.516Z,13.13
2022-12-31T17:07:54.586Z,12.88
2022-12-31T17:10:26.980Z,14.95
2022-12-31T17:13:28.234Z,16.42
2022-12-31T17:15:52.516Z,17.38
2022-12-31T17:18:24.333Z,17.70
2022-12-31T17:20:53.644Z,17.45
2022-12-31T17:23:33.977Z,16.63
2022-12-31T17:26:08.474Z,18.17
2022-12-31T17:29:03.374Z,17.00
2022-12-31T17:31:36.923Z,17.97
2022-12-31T17:34:13.530Z,19.88
2022-12-31T17:36:58.785Z,21.52
2022-12-31T17:39:28.057Z,30.17
2022-12-31T17:41:57.946Z,21.45
2022-12-31T17:44:29.143Z,18.52
2022-12-31T17:46:56.604Z,22.58
2022-12-31T17:49:30.196Z,19.48
2022-12-31T17:51:57.713Z,20.67
2022-12-31T17:54:24.933Z,18.95
2022-12-31T17:56:53.036Z,21.30
2022-12-31T17:59:29.799Z,20.73
2022-12-31T18:02:02.525Z,19.25
2022-12-31T18:04:29.809Z,20.55
2022-12-31T18:06:57.133Z,20.55
2022-12-31T18:09:24.357Z,21.08
2022-12-31T18:11:54.341Z,23.02
2022-12-31T18:14:24.218Z,23.02
2022-12-31T18:16:51.420Z,22.40
2022-12-31T18:19:45.681Z,23.35
2022-12-31T18:22:05.877Z,22.42
2022-12-31T18:24:33.351Z,22.35
2022-12-31T18:27:00.690Z,23.35
2022-12-31T18:29:27.811Z,22.15
2022-12-31T18:31:55.183Z,22.55
2022-12-31T18:34:22.405Z,22.98
2022-12-31T18:36:49.534Z,22.27
2022-12-31T18:39:17.007Z,23.75
2022-12-31T18:41:49.175Z,21.60
2022-12-31T18:44:16.592Z,22.05
2022-12-31T18:46:43.841Z,21.98
2022-12-31T18:49:11.124Z,22.80
2022-12-31T18:51:38.437Z,22.58
2022-12-31T18:54:10.035Z,23.58
2022-12-31T18:56:41.829Z,24.88
2022-12-31T18:59:13.736Z,23.70
2022-12-31T19:01:41.696Z,25.45
2022-12-31T19:04:24.757Z,24.58
2022-12-31T19:06:54.821Z,22.00
2022-12-31T19:09:44.714Z,20.45
2022-12-31T19:12:14.532Z,19.40
2022-12-31T19:14:41.781Z,21.25
2022-12-31T19:19:35.184Z,22.27
2022-12-31T19:22:03.158Z,20.40
2022-12-31T19:24:30.539Z,21.48
2022-12-31T19:26:57.735Z,20.88
2022-12-31T19:29:28.690Z,21.92
2022-12-31T19:31:55.996Z,22.13
2022-12-31T19:34:23.369Z,22.33
2022-12-31T19:36:50.529Z,23.75
2022-12-31T19:39:20.408Z,22.58
2022-12-31T19:41:54.731Z,23.35
2022-12-31T19:44:26.684Z,26.90
2022-12-31T19:46:54.444Z,22.42
2022-12-31T19:49:22.059Z,23.17
2022-12-31T19:51:49.365Z,22.77
2022-12-31T19:54:16.708Z,22.13
2022-12-31T19:56:44.143Z,20.92
2022-12-31T19:59:11.956Z,21.42
2022-12-31T20:01:39.557Z,22.08
2022-12-31T20:04:07.140Z,22.42
2022-12-31T20:06:35.444Z,23.40
2022-12-31T20:09:03.617Z,22.70
2022-12-31T20:11:31.631Z,20.75
2022-12-31T20:13:58.861Z,21.80
2022-12-31T20:16:33.983Z,22.73
2022-12-31T20:19:01.626Z,22.73
2022-12-31T20:21:29.601Z,22.58
2022-12-31T20:23:56.922Z,23.40
2022-12-31T20:26:25.106Z,22.88
2022-12-31T20:28:53.456Z,23.40
2022-12-31T20:31:23.694Z,23.27
2022-12-31T20:33:51.565Z,21.95
2022-12-31T20:36:18.749Z,21.80
2022-12-31T20:38:46.270Z,21.55
2022-12-31T20:41:22.064Z,22.65
2022-12-31T20:43:50.372Z,21.85
2022-12-31T20:46:25.056Z,21.33
2022-12-31T20:48:54.916Z,19.85
2022-12-31T20:51:22.938Z,20.67
2022-12-31T20:54:05.010Z,21.02
2022-12-31T20:56:35.798Z,20.48
2022-12-31T20:59:04.314Z,19.85
2022-12-31T21:01:55.095Z,19.92
2022-12-31T21:04:19.420Z,185.48
2022-12-31T21:06:48.262Z,162.32
2022-12-31T21:09:15.496Z,97.43
2022-12-31T21:12:01.536Z,52.38
2022-12-31T21:14:29.250Z,40.05
2022-12-31T21:16:56.554Z,34.33
2022-12-31T21:19:23.676Z,37.72
2022-12-31T21:21:51.021Z,33.00
2022-12-31T21:24:23.605Z,36.08
2022-12-31T21:26:51.514Z,37.90
2022-12-31T21:29:18.823Z,33.45
2022-12-31T21:31:46.158Z,30.08
2022-12-31T21:34:13.559Z,30.30
2022-12-31T21:36:40.674Z,29.05
2022-12-31T21:39:07.764Z,27.98
2022-12-31T21:41:53.030Z,30.10
2022-12-31T21:44:24.697Z,33.90
2022-12-31T21:47:33.368Z,34.60
2022-12-31T21:49:44.030Z,31.85
2022-12-31T21:52:27.914Z,39.25
2022-12-31T21:55:14.953Z,31.92
2022-12-31T21:58:15.641Z,31.75
2022-12-31T22:00:49.578Z,30.23
2022-12-31T22:03:27.964Z,27.33
2022-12-31T22:06:03.040Z,24.83
2022-12-31T22:08:31.781Z,23.67
2022-12-31T22:10:58.976Z,22.02
2022-12-31T22:13:26.222Z,21.08
2022-12-31T22:16:00.414Z,21.10
2022-12-31T22:18:34.141Z,19.70
2022-12-31T22:21:13.725Z,20.30
2022-12-31T22:23:46.627Z,18.67
2022-12-31T22:26:15.993Z,21.73
2022-12-31T22:28:44.318Z,19.10
2022-12-31T22:31:24.728Z,17.38
2022-12-31T22:33:52.597Z,16.70
2022-12-31T22:36:22.311Z,16.30
2022-12-31T22:38:51.584Z,14.95
2022-12-31T22:41:20.868Z,15.38
2022-12-31T22:43:58.514Z,15.90
2022-12-31T22:46:30.538Z,17.70
2022-12-31T22:48:59.368Z,16.05
2022-12-31T22:51:56.582Z,15.98
2022-12-31T22:54:15.385Z,17.25
2022-12-31T22:56:42.914Z,19.40
2022-12-31T22:59:11.135Z,19.60
2022-12-31T23:01:38.522Z,17.73
2022-12-31T23:04:06.005Z,15.93
2022-12-31T23:06:43.701Z,16.20
2022-12-31T23:09:31.091Z,15.85
2022-12-31T23:12:00.812Z,15.85
2022-12-31T23:14:49.392Z,15.68
2022-12-31T23:17:38.449Z,14.73
2022-12-31T23:20:29.905Z,17.77
2022-12-31T23:23:07.087Z,21.10
2022-12-31T23:25:39.127Z,16.95
2022-12-31T23:28:07.558Z,16.20
2022-12-31T23:30:38.714Z,16.70
2022-12-31T23:33:07.083Z,15.55
2022-12-31T23:35:36.845Z,15.05
2022-12-31T23:38:06.270Z,13.45
2022-12-31T23:40:36.485Z,13.57
2022-12-31T23:43:08.249Z,12.90
2022-12-31T23:45:36.534Z,13.07
2022-12-31T23:48:04.094Z,12.05
2022-12-31T23:50:31.430Z,12.90
2022-12-31T23:52:59.046Z,12.88
2022-12-31T23:55:26.406Z,13.80
2022-12-31T23:57:53.898Z,12.25
